sensor_id;sensor_type;location;lat;lon;timestamp;temperature;humidity
15296;DHT22;7749;49.964;7.890;2022-10-23T00:01:45;12.50;99.90
15296;DHT22;7749;49.964;7.890;2022-10-23T00:04:19;12.60;99.90
15296;DHT22;7749;49.964;7.890;2022-10-23T00:06:48;12.50;99.90
15296;DHT22;7749;49.964;7.890;2022-10-23T00:09:19;12.60;99.90
15296;DHT22;7749;49.964;7.890;2022-10-23T00:11:50;12.60;99.90
15296;DHT22;7749;49.964;7.890;2022-10-23T00:14:20;12.50;99.90
15296;DHT22;7749;49.964;7.890;2022-10-23T00:16:48;12.50;99.90
15296;DHT22;7749;49.964;7.890;2022-10-23T00:19:17;12.50;99.90
15296;DHT22;7749;49.964;7.890;2022-10-23T00:21:49;12.50;99.90
15296;DHT22;7749;49.964;7.890;2022-10-23T00:24:17;12.50;99.90
15296;DHT22;7749;49.964;7.890;2022-10-23T00:26:44;12.50;99.90
15296;DHT22;7749;49.964;7.890;2022-10-23T00:29:12;12.50;99.90
15296;DHT22;7749;49.964;7.890;2022-10-23T00:31:40;12.50;99.90
15296;DHT22;7749;49.964;7.890;2022-10-23T00:34:07;12.50;99.90
15296;DHT22;7749;49.964;7.890;2022-10-23T00:36:36;12.50;99.90
15296;DHT22;7749;49.964;7.890;2022-10-23T00:39:04;12.50;99.90
15296;DHT22;7749;49.964;7.890;2022-10-23T00:41:34;12.40;99.90
15296;DHT22;7749;49.964;7.890;2022-10-23T00:44:07;12.40;99.90
15296;DHT22;7749;49.964;7.890;2022-10-23T00:46:36;12.40;99.90
15296;DHT22;7749;49.964;7.890;2022-10-23T00:49:05;12.30;99.90
15296;DHT22;7749;49.964;7.890;2022-10-23T00:51:42;12.30;99.90
15296;DHT22;7749;49.964;7.890;2022-10-23T00:54:11;12.30;99.90
15296;DHT22;7749;49.964;7.890;2022-10-23T00:56:59;12.20;99.90
15296;DHT22;7749;49.964;7.890;2022-10-23T00:59:28;12.10;99.90
15296;DHT22;7749;49.964;7.890;2022-10-23T01:01:56;12.10;99.90
15296;DHT22;7749;49.964;7.890;2022-10-23T01:04:26;12.10;99.90
15296;DHT22;7749;49.964;7.890;2022-10-23T01:07:18;12.10;99.90
15296;DHT22;7749;49.964;7.890;2022-10-23T01:15:15;12.20;99.90
15296;DHT22;7749;49.964;7.890;2022-10-23T01:17:53;12.10;99.90
15296;DHT22;7749;49.964;7.890;2022-10-23T01:20:44;12.10;99.90
15296;DHT22;7749;49.964;7.890;2022-10-23T01:31:57;12.30;99.90
15296;DHT22;7749;49.964;7.890;2022-10-23T01:37:24;12.40;99.90
15296;DHT22;7749;49.964;7.890;2022-10-23T01:39:57;12.40;99.90
15296;DHT22;7749;49.964;7.890;2022-10-23T01:42:34;12.30;99.90
15296;DHT22;7749;49.964;7.890;2022-10-23T01:45:07;12.30;99.90
15296;DHT22;7749;49.964;7.890;2022-10-23T01:47:37;12.40;99.90
15296;DHT22;7749;49.964;7.890;2022-10-23T01:50:07;12.50;99.90
15296;DHT22;7749;49.964;7.890;2022-10-23T01:52:36;12.50;99.90
15296;DHT22;7749;49.964;7.890;2022-10-23T01:55:05;12.50;99.90
15296;DHT22;7749;49.964;7.890;2022-10-23T01:57:34;12.50;99.90
15296;DHT22;7749;49.964;7.890;2022-10-23T02:00:10;12.50;99.90
15296;DHT22;7749;49.964;7.890;2022-10-23T02:02:40;12.50;99.90
15296;DHT22;7749;49.964;7.890;2022-10-23T02:05:14;12.30;99.90
15296;DHT22;7749;49.964;7.890;2022-10-23T02:07:45;12.20;99.90
15296;DHT22;7749;49.964;7.890;2022-10-23T02:10:13;12.20;99.90
15296;DHT22;7749;49.964;7.890;2022-10-23T02:12:56;12.20;99.90
15296;DHT22;7749;49.964;7.890;2022-10-23T02:15:28;12.20;99.90
15296;DHT22;7749;49.964;7.890;2022-10-23T02:20:58;12.00;99.90
15296;DHT22;7749;49.964;7.890;2022-10-23T02:23:34;11.80;99.90
15296;DHT22;7749;49.964;7.890;2022-10-23T02:29:06;11.70;99.90
15296;DHT22;7749;49.964;7.890;2022-10-23T02:31:35;11.60;99.90
15296;DHT22;7749;49.964;7.890;2022-10-23T02:34:03;11.60;99.90
15296;DHT22;7749;49.964;7.890;2022-10-23T02:36:31;11.60;99.90
15296;DHT22;7749;49.964;7.890;2022-10-23T02:38:58;11.60;99.90
15296;DHT22;7749;49.964;7.890;2022-10-23T02:44:27;11.60;99.90
15296;DHT22;7749;49.964;7.890;2022-10-23T02:52:47;11.50;99.90
15296;DHT22;7749;49.964;7.890;2022-10-23T03:00:59;11.30;99.90
15296;DHT22;7749;49.964;7.890;2022-10-23T03:03:35;11.30;99.90
15296;DHT22;7749;49.964;7.890;2022-10-23T03:06:04;11.30;99.90
15296;DHT22;7749;49.964;7.890;2022-10-23T03:09:03;11.30;99.90
15296;DHT22;7749;49.964;7.890;2022-10-23T03:11:31;11.30;99.90
15296;DHT22;7749;49.964;7.890;2022-10-23T03:13:58;11.40;99.90
15296;DHT22;7749;49.964;7.890;2022-10-23T03:16:26;11.30;99.90
15296;DHT22;7749;49.964;7.890;2022-10-23T03:18:54;11.40;99.90
15296;DHT22;7749;49.964;7.890;2022-10-23T03:21:24;11.30;99.90
15296;DHT22;7749;49.964;7.890;2022-10-23T03:23:51;11.30;99.90
15296;DHT22;7749;49.964;7.890;2022-10-23T03:26:20;11.40;99.90
15296;DHT22;7749;49.964;7.890;2022-10-23T03:28:48;11.50;99.90
15296;DHT22;7749;49.964;7.890;2022-10-23T03:31:15;11.50;99.90
15296;DHT22;7749;49.964;7.890;2022-10-23T03:33:43;11.50;99.90
15296;DHT22;7749;49.964;7.890;2022-10-23T03:36:11;11.40;99.90
15296;DHT22;7749;49.964;7.890;2022-10-23T03:38:38;11.40;99.90
15296;DHT22;7749;49.964;7.890;2022-10-23T03:41:06;11.40;99.90
15296;DHT22;7749;49.964;7.890;2022-10-23T03:43:33;11.40;99.90
15296;DHT22;7749;49.964;7.890;2022-10-23T03:46:01;11.40;99.90
15296;DHT22;7749;49.964;7.890;2022-10-23T03:48:28;11.30;99.90
15296;DHT22;7749;49.964;7.890;2022-10-23T03:50:59;11.20;99.90
15296;DHT22;7749;49.964;7.890;2022-10-23T03:53:27;11.20;99.90
15296;DHT22;7749;49.964;7.890;2022-10-23T03:55:57;11.20;99.90
15296;DHT22;7749;49.964;7.890;2022-10-23T03:58:25;11.10;99.90
15296;DHT22;7749;49.964;7.890;2022-10-23T04:00:52;11.10;99.90
15296;DHT22;7749;49.964;7.890;2022-10-23T04:03:20;11.10;99.90
15296;DHT22;7749;49.964;7.890;2022-10-23T04:05:48;11.10;99.90
15296;DHT22;7749;49.964;7.890;2022-10-23T04:08:18;11.10;99.90
15296;DHT22;7749;49.964;7.890;2022-10-23T04:10:46;11.10;99.90
15296;DHT22;7749;49.964;7.890;2022-10-23T04:13:14;11.00;99.90
15296;DHT22;7749;49.964;7.890;2022-10-23T04:15:51;11.00;99.90
15296;DHT22;7749;49.964;7.890;2022-10-23T04:18:19;11.00;99.90
15296;DHT22;7749;49.964;7.890;2022-10-23T04:20:47;11.00;99.90
15296;DHT22;7749;49.964;7.890;2022-10-23T04:23:18;11.00;99.90
15296;DHT22;7749;49.964;7.890;2022-10-23T04:25:49;11.10;99.90
15296;DHT22;7749;49.964;7.890;2022-10-23T04:28:16;11.00;99.90
15296;DHT22;7749;49.964;7.890;2022-10-23T04:30:44;11.00;99.90
15296;DHT22;7749;49.964;7.890;2022-10-23T04:33:12;10.90;99.90
15296;DHT22;7749;49.964;7.890;2022-10-23T04:35:39;10.90;99.90
15296;DHT22;7749;49.964;7.890;2022-10-23T04:38:07;10.80;99.90
15296;DHT22;7749;49.964;7.890;2022-10-23T04:40:35;10.70;99.90
15296;DHT22;7749;49.964;7.890;2022-10-23T04:43:03;10.70;99.90
15296;DHT22;7749;49.964;7.890;2022-10-23T04:45:31;10.70;99.90
15296;DHT22;7749;49.964;7.890;2022-10-23T04:47:59;10.60;99.90
15296;DHT22;7749;49.964;7.890;2022-10-23T04:50:26;10.60;99.90
15296;DHT22;7749;49.964;7.890;2022-10-23T04:52:55;10.60;99.90
15296;DHT22;7749;49.964;7.890;2022-10-23T04:55:23;10.50;99.90
15296;DHT22;7749;49.964;7.890;2022-10-23T04:57:53;10.50;99.90
15296;DHT22;7749;49.964;7.890;2022-10-23T05:00:21;10.40;99.90
15296;DHT22;7749;49.964;7.890;2022-10-23T05:02:52;10.40;99.90
15296;DHT22;7749;49.964;7.890;2022-10-23T05:05:19;10.50;99.90
15296;DHT22;7749;49.964;7.890;2022-10-23T05:07:48;10.40;99.90
15296;DHT22;7749;49.964;7.890;2022-10-23T05:10:16;10.50;99.90
15296;DHT22;7749;49.964;7.890;2022-10-23T05:12:44;10.50;99.90
15296;DHT22;7749;49.964;7.890;2022-10-23T05:15:15;10.50;99.90
15296;DHT22;7749;49.964;7.890;2022-10-23T05:17:45;10.50;99.90
15296;DHT22;7749;49.964;7.890;2022-10-23T05:20:21;10.60;99.90
15296;DHT22;7749;49.964;7.890;2022-10-23T05:22:52;10.80;99.90
15296;DHT22;7749;49.964;7.890;2022-10-23T05:25:21;10.80;99.90
15296;DHT22;7749;49.964;7.890;2022-10-23T05:27:48;11.00;99.90
15296;DHT22;7749;49.964;7.890;2022-10-23T05:30:18;11.10;99.90
15296;DHT22;7749;49.964;7.890;2022-10-23T05:32:49;11.10;99.90
15296;DHT22;7749;49.964;7.890;2022-10-23T05:35:21;11.20;99.90
15296;DHT22;7749;49.964;7.890;2022-10-23T05:37:53;11.30;99.90
15296;DHT22;7749;49.964;7.890;2022-10-23T05:40:22;11.30;99.90
15296;DHT22;7749;49.964;7.890;2022-10-23T05:42:51;11.40;99.90
15296;DHT22;7749;49.964;7.890;2022-10-23T05:45:19;11.30;99.90
15296;DHT22;7749;49.964;7.890;2022-10-23T05:47:47;11.20;99.90
15296;DHT22;7749;49.964;7.890;2022-10-23T05:50:15;11.20;99.90
15296;DHT22;7749;49.964;7.890;2022-10-23T05:52:47;11.20;99.90
15296;DHT22;7749;49.964;7.890;2022-10-23T05:55:17;11.00;99.90
15296;DHT22;7749;49.964;7.890;2022-10-23T05:57:45;11.00;99.90
15296;DHT22;7749;49.964;7.890;2022-10-23T06:00:13;10.90;99.90
15296;DHT22;7749;49.964;7.890;2022-10-23T06:02:41;11.00;99.90
15296;DHT22;7749;49.964;7.890;2022-10-23T06:05:09;11.00;99.90
15296;DHT22;7749;49.964;7.890;2022-10-23T06:07:37;11.10;99.90
15296;DHT22;7749;49.964;7.890;2022-10-23T06:10:09;11.10;99.90
15296;DHT22;7749;49.964;7.890;2022-10-23T06:12:36;11.20;99.90
15296;DHT22;7749;49.964;7.890;2022-10-23T06:15:08;11.30;99.90
15296;DHT22;7749;49.964;7.890;2022-10-23T06:17:40;11.30;99.90
15296;DHT22;7749;49.964;7.890;2022-10-23T06:20:09;11.30;99.90
15296;DHT22;7749;49.964;7.890;2022-10-23T06:22:37;11.20;99.90
15296;DHT22;7749;49.964;7.890;2022-10-23T06:25:06;11.20;99.90
15296;DHT22;7749;49.964;7.890;2022-10-23T06:27:34;11.10;99.90
15296;DHT22;7749;49.964;7.890;2022-10-23T06:30:02;11.20;99.90
15296;DHT22;7749;49.964;7.890;2022-10-23T06:32:31;11.20;99.90
15296;DHT22;7749;49.964;7.890;2022-10-23T06:34:58;11.10;99.90
15296;DHT22;7749;49.964;7.890;2022-10-23T06:37:26;11.30;99.90
15296;DHT22;7749;49.964;7.890;2022-10-23T06:39:56;11.20;99.90
15296;DHT22;7749;49.964;7.890;2022-10-23T06:42:25;11.40;99.90
15296;DHT22;7749;49.964;7.890;2022-10-23T06:44:52;11.40;99.90
15296;DHT22;7749;49.964;7.890;2022-10-23T06:47:20;11.40;99.90
15296;DHT22;7749;49.964;7.890;2022-10-23T06:49:48;11.40;99.90
15296;DHT22;7749;49.964;7.890;2022-10-23T06:52:16;11.60;99.90
15296;DHT22;7749;49.964;7.890;2022-10-23T06:55:05;11.70;99.90
15296;DHT22;7749;49.964;7.890;2022-10-23T06:57:33;11.80;99.90
15296;DHT22;7749;49.964;7.890;2022-10-23T07:00:03;11.90;99.90
15296;DHT22;7749;49.964;7.890;2022-10-23T07:02:31;11.80;99.90
15296;DHT22;7749;49.964;7.890;2022-10-23T07:04:59;12.00;99.90
15296;DHT22;7749;49.964;7.890;2022-10-23T07:07:33;12.10;99.90
15296;DHT22;7749;49.964;7.890;2022-10-23T07:10:01;12.20;99.90
15296;DHT22;7749;49.964;7.890;2022-10-23T07:12:29;12.40;99.90
15296;DHT22;7749;49.964;7.890;2022-10-23T07:15:00;12.50;99.90
15296;DHT22;7749;49.964;7.890;2022-10-23T07:17:29;12.60;99.90
15296;DHT22;7749;49.964;7.890;2022-10-23T07:19:58;12.70;99.90
15296;DHT22;7749;49.964;7.890;2022-10-23T07:22:25;12.80;99.90
15296;DHT22;7749;49.964;7.890;2022-10-23T07:24:53;12.80;99.90
15296;DHT22;7749;49.964;7.890;2022-10-23T07:27:21;12.90;99.90
15296;DHT22;7749;49.964;7.890;2022-10-23T07:29:50;12.90;99.90
15296;DHT22;7749;49.964;7.890;2022-10-23T07:32:18;13.00;99.90
15296;DHT22;7749;49.964;7.890;2022-10-23T07:34:46;12.90;99.90
15296;DHT22;7749;49.964;7.890;2022-10-23T07:37:17;13.00;99.90
15296;DHT22;7749;49.964;7.890;2022-10-23T07:39:45;12.90;99.90
15296;DHT22;7749;49.964;7.890;2022-10-23T07:42:24;13.00;99.90
15296;DHT22;7749;49.964;7.890;2022-10-23T07:44:52;13.00;99.90
15296;DHT22;7749;49.964;7.890;2022-10-23T07:47:20;13.00;99.90
15296;DHT22;7749;49.964;7.890;2022-10-23T07:49:49;13.10;99.90
15296;DHT22;7749;49.964;7.890;2022-10-23T07:52:17;13.10;99.90
15296;DHT22;7749;49.964;7.890;2022-10-23T07:54:45;13.00;99.90
15296;DHT22;7749;49.964;7.890;2022-10-23T07:57:13;13.10;99.90
15296;DHT22;7749;49.964;7.890;2022-10-23T07:59:41;13.20;99.90
15296;DHT22;7749;49.964;7.890;2022-10-23T08:02:14;13.30;99.90
15296;DHT22;7749;49.964;7.890;2022-10-23T08:04:42;13.40;99.90
15296;DHT22;7749;49.964;7.890;2022-10-23T08:07:15;13.30;99.90
15296;DHT22;7749;49.964;7.890;2022-10-23T08:10:07;13.30;99.90
15296;DHT22;7749;49.964;7.890;2022-10-23T08:12:36;13.30;99.90
15296;DHT22;7749;49.964;7.890;2022-10-23T08:15:05;13.40;99.90
15296;DHT22;7749;49.964;7.890;2022-10-23T08:17:36;13.50;99.90
15296;DHT22;7749;49.964;7.890;2022-10-23T08:20:36;13.50;99.90
15296;DHT22;7749;49.964;7.890;2022-10-23T08:23:08;13.40;99.90
15296;DHT22;7749;49.964;7.890;2022-10-23T08:25:44;13.60;99.90
15296;DHT22;7749;49.964;7.890;2022-10-23T08:28:17;13.50;99.90
15296;DHT22;7749;49.964;7.890;2022-10-23T08:30:45;13.60;99.90
15296;DHT22;7749;49.964;7.890;2022-10-23T08:33:17;13.60;99.90
15296;DHT22;7749;49.964;7.890;2022-10-23T08:35:46;13.80;99.90
15296;DHT22;7749;49.964;7.890;2022-10-23T08:38:17;13.80;99.90
15296;DHT22;7749;49.964;7.890;2022-10-23T08:40:49;13.90;99.90
15296;DHT22;7749;49.964;7.890;2022-10-23T08:43:46;13.90;99.90
15296;DHT22;7749;49.964;7.890;2022-10-23T08:46:15;14.00;99.90
15296;DHT22;7749;49.964;7.890;2022-10-23T08:48:51;14.20;99.90
15296;DHT22;7749;49.964;7.890;2022-10-23T08:51:35;14.30;99.90
15296;DHT22;7749;49.964;7.890;2022-10-23T08:54:18;14.40;99.90
15296;DHT22;7749;49.964;7.890;2022-10-23T08:56:53;14.50;99.90
15296;DHT22;7749;49.964;7.890;2022-10-23T08:59:35;14.60;99.90
15296;DHT22;7749;49.964;7.890;2022-10-23T09:02:37;14.70;99.90
15296;DHT22;7749;49.964;7.890;2022-10-23T09:08:55;15.00;99.90
15296;DHT22;7749;49.964;7.890;2022-10-23T09:11:55;15.20;99.90
15296;DHT22;7749;49.964;7.890;2022-10-23T09:14:49;15.30;99.90
15296;DHT22;7749;49.964;7.890;2022-10-23T09:17:39;15.40;99.90
15296;DHT22;7749;49.964;7.890;2022-10-23T09:23:00;15.70;99.90
15296;DHT22;7749;49.964;7.890;2022-10-23T09:25:39;15.90;99.90
15296;DHT22;7749;49.964;7.890;2022-10-23T09:28:29;16.10;99.90
15296;DHT22;7749;49.964;7.890;2022-10-23T09:31:11;16.30;99.90
15296;DHT22;7749;49.964;7.890;2022-10-23T09:33:39;16.60;99.90
15296;DHT22;7749;49.964;7.890;2022-10-23T09:41:35;16.70;99.90
15296;DHT22;7749;49.964;7.890;2022-10-23T09:46:45;16.70;99.90
15296;DHT22;7749;49.964;7.890;2022-10-23T09:49:18;16.60;99.90
15296;DHT22;7749;49.964;7.890;2022-10-23T09:52:03;16.60;99.90
15296;DHT22;7749;49.964;7.890;2022-10-23T09:54:53;16.50;99.90
15296;DHT22;7749;49.964;7.890;2022-10-23T09:57:36;16.50;99.90
15296;DHT22;7749;49.964;7.890;2022-10-23T10:02:43;16.30;99.90
15296;DHT22;7749;49.964;7.890;2022-10-23T10:05:28;16.10;99.90
15296;DHT22;7749;49.964;7.890;2022-10-23T10:08:14;16.10;99.90
15296;DHT22;7749;49.964;7.890;2022-10-23T10:10:49;15.90;99.90
15296;DHT22;7749;49.964;7.890;2022-10-23T10:16:19;15.70;99.90
15296;DHT22;7749;49.964;7.890;2022-10-23T10:19:09;15.70;99.90
15296;DHT22;7749;49.964;7.890;2022-10-23T10:25:08;15.70;99.90
15296;DHT22;7749;49.964;7.890;2022-10-23T10:30:22;15.90;99.90
15296;DHT22;7749;49.964;7.890;2022-10-23T10:33:17;16.00;99.90
15296;DHT22;7749;49.964;7.890;2022-10-23T10:36:24;16.20;99.90
15296;DHT22;7749;49.964;7.890;2022-10-23T10:39:02;16.20;99.90
15296;DHT22;7749;49.964;7.890;2022-10-23T10:41:59;16.20;99.90
15296;DHT22;7749;49.964;7.890;2022-10-23T10:47:21;16.50;99.90
15296;DHT22;7749;49.964;7.890;2022-10-23T10:50:02;16.60;99.90
15296;DHT22;7749;49.964;7.890;2022-10-23T10:55:41;17.40;99.90
15296;DHT22;7749;49.964;7.890;2022-10-23T10:58:35;17.40;99.90
15296;DHT22;7749;49.964;7.890;2022-10-23T11:01:16;17.50;99.90
15296;DHT22;7749;49.964;7.890;2022-10-23T11:04:10;17.30;99.90
15296;DHT22;7749;49.964;7.890;2022-10-23T11:06:45;17.40;99.90
15296;DHT22;7749;49.964;7.890;2022-10-23T11:09:21;17.50;99.90
15296;DHT22;7749;49.964;7.890;2022-10-23T11:11:51;17.70;99.90
15296;DHT22;7749;49.964;7.890;2022-10-23T11:14:24;17.80;99.90
15296;DHT22;7749;49.964;7.890;2022-10-23T11:17:19;17.70;99.90
15296;DHT22;7749;49.964;7.890;2022-10-23T11:20:01;17.50;99.90
15296;DHT22;7749;49.964;7.890;2022-10-23T11:22:45;17.50;99.90
15296;DHT22;7749;49.964;7.890;2022-10-23T11:25:30;17.50;99.90
15296;DHT22;7749;49.964;7.890;2022-10-23T11:30:58;17.90;99.90
15296;DHT22;7749;49.964;7.890;2022-10-23T11:36:58;18.60;99.90
15296;DHT22;7749;49.964;7.890;2022-10-23T11:39:32;19.20;91.70
15296;DHT22;7749;49.964;7.890;2022-10-23T11:44:38;22.20;1.00
15296;DHT22;7749;49.964;7.890;2022-10-23T11:52:51;24.30;99.90
15296;DHT22;7749;49.964;7.890;2022-10-23T11:55:56;24.10;1.00
15296;DHT22;7749;49.964;7.890;2022-10-23T12:01:33;26.60;1.00
15296;DHT22;7749;49.964;7.890;2022-10-23T12:07:14;28.90;97.70
15296;DHT22;7749;49.964;7.890;2022-10-23T12:09:56;29.40;94.40
15296;DHT22;7749;49.964;7.890;2022-10-23T12:12:33;29.70;92.70
15296;DHT22;7749;49.964;7.890;2022-10-23T12:15:28;29.90;90.90
15296;DHT22;7749;49.964;7.890;2022-10-23T12:18:14;30.40;87.80
15296;DHT22;7749;49.964;7.890;2022-10-23T12:23:34;30.30;84.40
15296;DHT22;7749;49.964;7.890;2022-10-23T12:29:16;30.70;82.60
15296;DHT22;7749;49.964;7.890;2022-10-23T12:38:12;30.10;79.10
15296;DHT22;7749;49.964;7.890;2022-10-23T12:40:54;28.40;88.30
15296;DHT22;7749;49.964;7.890;2022-10-23T12:43:26;27.20;99.90
15296;DHT22;7749;49.964;7.890;2022-10-23T12:46:06;26.00;1.00
15296;DHT22;7749;49.964;7.890;2022-10-23T12:54:31;25.70;99.90
15296;DHT22;7749;49.964;7.890;2022-10-23T12:56:59;25.00;1.00
15296;DHT22;7749;49.964;7.890;2022-10-23T12:59:36;24.60;1.00
15296;DHT22;7749;49.964;7.890;2022-10-23T13:04:52;24.90;99.90
15296;DHT22;7749;49.964;7.890;2022-10-23T13:07:25;24.80;88.30
15296;DHT22;7749;49.964;7.890;2022-10-23T13:09:54;24.50;1.00
15296;DHT22;7749;49.964;7.890;2022-10-23T13:12:32;24.70;99.90
15296;DHT22;7749;49.964;7.890;2022-10-23T13:15:23;24.30;99.90
15296;DHT22;7749;49.964;7.890;2022-10-23T13:20:37;23.70;1.00
15296;DHT22;7749;49.964;7.890;2022-10-23T13:28:41;25.90;99.90
15296;DHT22;7749;49.964;7.890;2022-10-23T13:31:25;26.60;99.90
15296;DHT22;7749;49.964;7.890;2022-10-23T13:36:29;26.10;1.00
15296;DHT22;7749;49.964;7.890;2022-10-23T13:41:43;25.50;99.90
15296;DHT22;7749;49.964;7.890;2022-10-23T13:44:12;26.30;1.00
15296;DHT22;7749;49.964;7.890;2022-10-23T13:46:41;26.20;99.90
15296;DHT22;7749;49.964;7.890;2022-10-23T13:49:09;25.70;99.90
15296;DHT22;7749;49.964;7.890;2022-10-23T13:51:50;24.60;1.00
15296;DHT22;7749;49.964;7.890;2022-10-23T15:10:58;18.80;90.60
15296;DHT22;7749;49.964;7.890;2022-10-23T15:14:11;18.80;96.40
15296;DHT22;7749;49.964;7.890;2022-10-23T15:17:59;18.80;94.30
15296;DHT22;7749;49.964;7.890;2022-10-23T15:21:29;18.80;95.10
15296;DHT22;7749;49.964;7.890;2022-10-23T15:24:49;18.90;92.10
15296;DHT22;7749;49.964;7.890;2022-10-23T15:27:43;19.10;86.60
15296;DHT22;7749;49.964;7.890;2022-10-23T15:31:21;19.20;82.80
15296;DHT22;7749;49.964;7.890;2022-10-23T15:35:01;19.10;82.90
15296;DHT22;7749;49.964;7.890;2022-10-23T15:38:15;19.00;88.10
15296;DHT22;7749;49.964;7.890;2022-10-23T15:41:38;18.90;92.50
15296;DHT22;7749;49.964;7.890;2022-10-23T15:44:56;18.80;96.10
15296;DHT22;7749;49.964;7.890;2022-10-23T15:48:40;18.70;99.20
15296;DHT22;7749;49.964;7.890;2022-10-23T15:52:20;18.40;99.90
15296;DHT22;7749;49.964;7.890;2022-10-23T15:55:59;18.30;99.90
15296;DHT22;7749;49.964;7.890;2022-10-23T15:59:32;18.10;99.90
15296;DHT22;7749;49.964;7.890;2022-10-23T16:03:26;17.90;99.90
15296;DHT22;7749;49.964;7.890;2022-10-23T16:06:59;17.80;99.90
15296;DHT22;7749;49.964;7.890;2022-10-23T16:10:17;17.60;99.90
15296;DHT22;7749;49.964;7.890;2022-10-23T16:13:59;17.60;99.90
15296;DHT22;7749;49.964;7.890;2022-10-23T16:17:01;17.50;99.90
15296;DHT22;7749;49.964;7.890;2022-10-23T16:25:15;17.40;99.90
15296;DHT22;7749;49.964;7.890;2022-10-23T17:24:12;16.90;99.90
15296;DHT22;7749;49.964;7.890;2022-10-23T17:26:40;16.90;99.90
15296;DHT22;7749;49.964;7.890;2022-10-23T17:29:09;16.90;99.90
15296;DHT22;7749;49.964;7.890;2022-10-23T17:31:39;16.80;99.90
15296;DHT22;7749;49.964;7.890;2022-10-23T17:34:09;16.80;99.90
15296;DHT22;7749;49.964;7.890;2022-10-23T17:39:19;16.80;99.90
15296;DHT22;7749;49.964;7.890;2022-10-23T17:41:47;16.80;99.90
15296;DHT22;7749;49.964;7.890;2022-10-23T17:44:15;16.80;99.90
15296;DHT22;7749;49.964;7.890;2022-10-23T17:46:43;16.80;99.90
15296;DHT22;7749;49.964;7.890;2022-10-23T17:49:13;16.70;99.90
15296;DHT22;7749;49.964;7.890;2022-10-23T17:51:41;16.60;99.90
15296;DHT22;7749;49.964;7.890;2022-10-23T17:54:10;16.60;99.90
15296;DHT22;7749;49.964;7.890;2022-10-23T17:56:40;16.50;99.90
15296;DHT22;7749;49.964;7.890;2022-10-23T17:59:12;16.40;99.90
15296;DHT22;7749;49.964;7.890;2022-10-23T18:01:44;16.40;99.90
15296;DHT22;7749;49.964;7.890;2022-10-23T18:04:18;16.20;99.90
15296;DHT22;7749;49.964;7.890;2022-10-23T18:06:54;16.20;99.90
15296;DHT22;7749;49.964;7.890;2022-10-23T18:09:22;16.10;99.90
15296;DHT22;7749;49.964;7.890;2022-10-23T18:11:50;16.10;99.90
15296;DHT22;7749;49.964;7.890;2022-10-23T18:14:20;16.10;99.90
15296;DHT22;7749;49.964;7.890;2022-10-23T18:16:48;16.00;99.90
15296;DHT22;7749;49.964;7.890;2022-10-23T18:19:17;16.00;99.90
15296;DHT22;7749;49.964;7.890;2022-10-23T18:21:47;16.00;99.90
15296;DHT22;7749;49.964;7.890;2022-10-23T18:24:18;15.90;99.90
15296;DHT22;7749;49.964;7.890;2022-10-23T18:26:46;15.90;99.90
15296;DHT22;7749;49.964;7.890;2022-10-23T18:29:17;15.80;99.90
15296;DHT22;7749;49.964;7.890;2022-10-23T18:32:28;15.80;99.90
15296;DHT22;7749;49.964;7.890;2022-10-23T18:34:57;15.70;99.90
15296;DHT22;7749;49.964;7.890;2022-10-23T18:37:25;15.60;99.90
15296;DHT22;7749;49.964;7.890;2022-10-23T18:39:58;15.60;99.90
15296;DHT22;7749;49.964;7.890;2022-10-23T18:42:25;15.50;99.90
15296;DHT22;7749;49.964;7.890;2022-10-23T18:44:53;15.50;99.90
15296;DHT22;7749;49.964;7.890;2022-10-23T18:47:22;15.40;99.90
15296;DHT22;7749;49.964;7.890;2022-10-23T18:49:50;15.30;99.90
15296;DHT22;7749;49.964;7.890;2022-10-23T18:52:20;15.30;99.90
15296;DHT22;7749;49.964;7.890;2022-10-23T18:54:48;15.30;99.90
15296;DHT22;7749;49.964;7.890;2022-10-23T18:57:15;15.20;99.90
15296;DHT22;7749;49.964;7.890;2022-10-23T18:59:43;15.20;99.90
15296;DHT22;7749;49.964;7.890;2022-10-23T19:02:21;15.10;99.90
15296;DHT22;7749;49.964;7.890;2022-10-23T19:04:54;15.10;99.90
15296;DHT22;7749;49.964;7.890;2022-10-23T19:07:22;15.10;99.90
15296;DHT22;7749;49.964;7.890;2022-10-23T19:10:03;15.10;99.90
15296;DHT22;7749;49.964;7.890;2022-10-23T19:12:33;15.00;99.90
15296;DHT22;7749;49.964;7.890;2022-10-23T19:15:14;15.00;99.90
15296;DHT22;7749;49.964;7.890;2022-10-23T19:17:58;15.00;99.90
15296;DHT22;7749;49.964;7.890;2022-10-23T19:20:26;15.10;99.90
15296;DHT22;7749;49.964;7.890;2022-10-23T19:22:58;15.00;99.90
15296;DHT22;7749;49.964;7.890;2022-10-23T19:25:29;15.00;99.90
15296;DHT22;7749;49.964;7.890;2022-10-23T19:28:01;14.90;99.90
15296;DHT22;7749;49.964;7.890;2022-10-23T19:30:29;15.00;99.90
15296;DHT22;7749;49.964;7.890;2022-10-23T19:32:58;15.00;99.90
15296;DHT22;7749;49.964;7.890;2022-10-23T19:35:26;15.00;99.90
15296;DHT22;7749;49.964;7.890;2022-10-23T19:37:54;15.00;99.90
15296;DHT22;7749;49.964;7.890;2022-10-23T19:40:22;14.90;99.90
15296;DHT22;7749;49.964;7.890;2022-10-23T19:42:50;14.90;99.90
15296;DHT22;7749;49.964;7.890;2022-10-23T19:45:18;15.00;99.90
15296;DHT22;7749;49.964;7.890;2022-10-23T19:47:46;14.90;99.90
15296;DHT22;7749;49.964;7.890;2022-10-23T19:50:14;15.00;99.90
15296;DHT22;7749;49.964;7.890;2022-10-23T19:52:42;15.00;99.90
15296;DHT22;7749;49.964;7.890;2022-10-23T19:55:10;15.20;99.90
15296;DHT22;7749;49.964;7.890;2022-10-23T19:57:37;15.10;99.90
15296;DHT22;7749;49.964;7.890;2022-10-23T20:00:06;15.20;99.90
15296;DHT22;7749;49.964;7.890;2022-10-23T20:02:37;15.20;99.90
15296;DHT22;7749;49.964;7.890;2022-10-23T20:05:05;15.20;99.90
15296;DHT22;7749;49.964;7.890;2022-10-23T20:07:34;15.20;99.90
15296;DHT22;7749;49.964;7.890;2022-10-23T20:10:04;15.30;99.90
15296;DHT22;7749;49.964;7.890;2022-10-23T20:12:33;15.30;99.90
15296;DHT22;7749;49.964;7.890;2022-10-23T20:15:01;15.30;99.90
15296;DHT22;7749;49.964;7.890;2022-10-23T20:17:30;15.40;99.90
15296;DHT22;7749;49.964;7.890;2022-10-23T20:19:59;15.30;99.90
15296;DHT22;7749;49.964;7.890;2022-10-23T20:22:26;15.40;99.90
15296;DHT22;7749;49.964;7.890;2022-10-23T20:24:55;15.40;99.90
15296;DHT22;7749;49.964;7.890;2022-10-23T20:27:23;15.40;99.90
15296;DHT22;7749;49.964;7.890;2022-10-23T20:29:54;15.30;99.90
15296;DHT22;7749;49.964;7.890;2022-10-23T20:32:22;15.30;99.90
15296;DHT22;7749;49.964;7.890;2022-10-23T20:34:49;15.30;99.90
15296;DHT22;7749;49.964;7.890;2022-10-23T20:37:20;15.20;99.90
15296;DHT22;7749;49.964;7.890;2022-10-23T20:39:47;15.20;99.90
15296;DHT22;7749;49.964;7.890;2022-10-23T20:42:15;15.20;99.90
15296;DHT22;7749;49.964;7.890;2022-10-23T20:44:42;15.20;99.90
15296;DHT22;7749;49.964;7.890;2022-10-23T20:47:10;15.20;99.90
15296;DHT22;7749;49.964;7.890;2022-10-23T20:49:43;15.10;99.90
15296;DHT22;7749;49.964;7.890;2022-10-23T20:52:13;15.10;99.90
15296;DHT22;7749;49.964;7.890;2022-10-23T20:54:43;15.10;99.90
15296;DHT22;7749;49.964;7.890;2022-10-23T20:57:11;15.00;99.90
15296;DHT22;7749;49.964;7.890;2022-10-23T20:59:38;15.00;99.90
15296;DHT22;7749;49.964;7.890;2022-10-23T21:02:06;15.00;99.90
15296;DHT22;7749;49.964;7.890;2022-10-23T21:04:36;14.90;99.90